sensor_id;sensor_type;location;lat;lon;timestamp;P1;durP1;ratioP1;P2;durP2;ratioP2
78183;SDS011;67442;44.570;18.610;2023-12-20T00:01:24;523.63;;;176.98;;
78183;SDS011;67442;44.570;18.610;2023-12-20T00:03:55;443.98;;;160.77;;
78183;SDS011;67442;44.570;18.610;2023-12-20T00:06:26;417.52;;;147.27;;
78183;SDS011;67442;44.570;18.610;2023-12-20T00:08:58;389.05;;;134.10;;
78183;SDS011;67442;44.570;18.610;2023-12-20T00:11:25;388.02;;;130.02;;
78183;SDS011;67442;44.570;18.610;2023-12-20T00:13:56;427.20;;;142.75;;
78183;SDS011;67442;44.570;18.610;2023-12-20T00:16:24;311.23;;;107.22;;
78183;SDS011;67442;44.570;18.610;2023-12-20T00:18:52;355.83;;;125.68;;
78183;SDS011;67442;44.570;18.610;2023-12-20T00:21:19;262.77;;;93.75;;
78183;SDS011;67442;44.570;18.610;2023-12-20T00:23:46;286.48;;;98.50;;
78183;SDS011;67442;44.570;18.610;2023-12-20T00:26:14;307.85;;;104.22;;
78183;SDS011;67442;44.570;18.610;2023-12-20T00:28:41;265.98;;;90.88;;
78183;SDS011;67442;44.570;18.610;2023-12-20T00:31:08;280.25;;;96.70;;
78183;SDS011;67442;44.570;18.610;2023-12-20T00:33:40;271.10;;;93.95;;
78183;SDS011;67442;44.570;18.610;2023-12-20T00:36:11;241.95;;;85.55;;
78183;SDS011;67442;44.570;18.610;2023-12-20T00:38:39;301.65;;;106.72;;
78183;SDS011;67442;44.570;18.610;2023-12-20T00:41:07;296.40;;;102.47;;
78183;SDS011;67442;44.570;18.610;2023-12-20T00:43:37;286.73;;;97.82;;
78183;SDS011;67442;44.570;18.610;2023-12-20T00:46:09;290.60;;;101.13;;
78183;SDS011;67442;44.570;18.610;2023-12-20T00:48:36;334.33;;;114.53;;
78183;SDS011;67442;44.570;18.610;2023-12-20T00:51:04;292.38;;;103.72;;
78183;SDS011;67442;44.570;18.610;2023-12-20T00:53:35;354.55;;;120.05;;
78183;SDS011;67442;44.570;18.610;2023-12-20T00:56:03;303.05;;;107.32;;
78183;SDS011;67442;44.570;18.610;2023-12-20T00:58:30;319.67;;;112.40;;
78183;SDS011;67442;44.570;18.610;2023-12-20T01:00:59;357.15;;;122.32;;
78183;SDS011;67442;44.570;18.610;2023-12-20T01:03:30;298.42;;;101.50;;
78183;SDS011;67442;44.570;18.610;2023-12-20T01:06:01;249.30;;;83.35;;
78183;SDS011;67442;44.570;18.610;2023-12-20T01:08:30;288.52;;;98.38;;
78183;SDS011;67442;44.570;18.610;2023-12-20T01:11:05;259.83;;;92.95;;
78183;SDS011;67442;44.570;18.610;2023-12-20T01:13:32;307.60;;;104.80;;
78183;SDS011;67442;44.570;18.610;2023-12-20T01:15:59;292.50;;;100.18;;
78183;SDS011;67442;44.570;18.610;2023-12-20T01:18:27;278.65;;;97.43;;
78183;SDS011;67442;44.570;18.610;2023-12-20T01:20:55;251.82;;;85.50;;
78183;SDS011;67442;44.570;18.610;2023-12-20T01:23:26;256.23;;;88.18;;
78183;SDS011;67442;44.570;18.610;2023-12-20T01:25:58;247.20;;;86.38;;
78183;SDS011;67442;44.570;18.610;2023-12-20T01:28:26;260.40;;;88.97;;
78183;SDS011;67442;44.570;18.610;2023-12-20T01:30:53;272.38;;;90.43;;
78183;SDS011;67442;44.570;18.610;2023-12-20T01:33:24;254.80;;;85.57;;
78183;SDS011;67442;44.570;18.610;2023-12-20T01:35:55;298.70;;;103.20;;
78183;SDS011;67442;44.570;18.610;2023-12-20T01:38:23;342.73;;;114.75;;
78183;SDS011;67442;44.570;18.610;2023-12-20T01:40:50;391.90;;;130.88;;
78183;SDS011;67442;44.570;18.610;2023-12-20T01:43:17;311.77;;;103.43;;
78183;SDS011;67442;44.570;18.610;2023-12-20T01:45:48;302.52;;;102.70;;
78183;SDS011;67442;44.570;18.610;2023-12-20T01:48:15;285.98;;;96.53;;
78183;SDS011;67442;44.570;18.610;2023-12-20T01:50:47;315.55;;;105.78;;
78183;SDS011;67442;44.570;18.610;2023-12-20T01:53:15;328.27;;;110.93;;
78183;SDS011;67442;44.570;18.610;2023-12-20T01:55:42;200.32;;;69.15;;
78183;SDS011;67442;44.570;18.610;2023-12-20T01:58:10;284.75;;;95.95;;
78183;SDS011;67442;44.570;18.610;2023-12-20T02:00:38;254.35;;;87.03;;
78183;SDS011;67442;44.570;18.610;2023-12-20T02:03:05;235.70;;;78.57;;
78183;SDS011;67442;44.570;18.610;2023-12-20T02:05:35;246.00;;;78.55;;
78183;SDS011;67442;44.570;18.610;2023-12-20T02:08:07;261.38;;;86.88;;
78183;SDS011;67442;44.570;18.610;2023-12-20T02:10:35;251.63;;;83.05;;
78183;SDS011;67442;44.570;18.610;2023-12-20T02:13:03;258.45;;;83.38;;
78183;SDS011;67442;44.570;18.610;2023-12-20T02:15:30;394.05;;;130.10;;
78183;SDS011;67442;44.570;18.610;2023-12-20T02:18:00;310.55;;;105.57;;
78183;SDS011;67442;44.570;18.610;2023-12-20T02:20:28;304.63;;;100.57;;
78183;SDS011;67442;44.570;18.610;2023-12-20T02:22:59;306.10;;;100.90;;
78183;SDS011;67442;44.570;18.610;2023-12-20T02:25:30;282.70;;;97.50;;
78183;SDS011;67442;44.570;18.610;2023-12-20T02:27:58;267.33;;;91.45;;
78183;SDS011;67442;44.570;18.610;2023-12-20T02:30:25;305.15;;;103.28;;
78183;SDS011;67442;44.570;18.610;2023-12-20T02:32:57;375.25;;;122.60;;
78183;SDS011;67442;44.570;18.610;2023-12-20T02:35:25;294.13;;;100.25;;
78183;SDS011;67442;44.570;18.610;2023-12-20T02:37:53;310.13;;;107.13;;
78183;SDS011;67442;44.570;18.610;2023-12-20T02:40:20;309.13;;;100.70;;
78183;SDS011;67442;44.570;18.610;2023-12-20T02:42:48;312.02;;;103.68;;
78183;SDS011;67442;44.570;18.610;2023-12-20T02:45:15;257.50;;;85.22;;
78183;SDS011;67442;44.570;18.610;2023-12-20T02:47:43;301.10;;;101.07;;
78183;SDS011;67442;44.570;18.610;2023-12-20T02:50:11;305.10;;;100.97;;
78183;SDS011;67442;44.570;18.610;2023-12-20T02:52:38;272.40;;;86.63;;
78183;SDS011;67442;44.570;18.610;2023-12-20T02:55:06;176.38;;;61.70;;
78183;SDS011;67442;44.570;18.610;2023-12-20T02:57:34;217.70;;;71.97;;
78183;SDS011;67442;44.570;18.610;2023-12-20T03:00:10;200.75;;;68.88;;
78183;SDS011;67442;44.570;18.610;2023-12-20T03:02:38;205.88;;;68.10;;
78183;SDS011;67442;44.570;18.610;2023-12-20T03:05:06;196.75;;;67.05;;
78183;SDS011;67442;44.570;18.610;2023-12-20T03:07:33;219.25;;;73.18;;
78183;SDS011;67442;44.570;18.610;2023-12-20T03:10:03;222.05;;;73.93;;
78183;SDS011;67442;44.570;18.610;2023-12-20T03:12:33;224.65;;;75.75;;
78183;SDS011;67442;44.570;18.610;2023-12-20T03:15:00;223.80;;;71.05;;
78183;SDS011;67442;44.570;18.610;2023-12-20T03:17:28;221.93;;;71.63;;
78183;SDS011;67442;44.570;18.610;2023-12-20T03:19:59;264.27;;;87.47;;
78183;SDS011;67442;44.570;18.610;2023-12-20T03:22:26;285.23;;;90.28;;
78183;SDS011;67442;44.570;18.610;2023-12-20T03:24:54;247.75;;;81.47;;
78183;SDS011;67442;44.570;18.610;2023-12-20T03:27:21;259.05;;;82.90;;
78183;SDS011;67442;44.570;18.610;2023-12-20T03:29:49;225.32;;;71.70;;
78183;SDS011;67442;44.570;18.610;2023-12-20T03:32:16;189.70;;;64.75;;
78183;SDS011;67442;44.570;18.610;2023-12-20T03:34:44;194.52;;;66.85;;
78183;SDS011;67442;44.570;18.610;2023-12-20T03:37:12;197.93;;;65.43;;
78183;SDS011;67442;44.570;18.610;2023-12-20T03:39:39;196.93;;;65.70;;
78183;SDS011;67442;44.570;18.610;2023-12-20T03:42:07;216.93;;;72.25;;
78183;SDS011;67442;44.570;18.610;2023-12-20T03:44:34;231.23;;;77.25;;
78183;SDS011;67442;44.570;18.610;2023-12-20T03:47:08;240.27;;;76.90;;
78183;SDS011;67442;44.570;18.610;2023-12-20T03:49:39;225.20;;;78.07;;
78183;SDS011;67442;44.570;18.610;2023-12-20T03:52:11;236.32;;;76.90;;
78183;SDS011;67442;44.570;18.610;2023-12-20T03:54:39;214.05;;;71.80;;
78183;SDS011;67442;44.570;18.610;2023-12-20T03:57:10;260.23;;;82.72;;
78183;SDS011;67442;44.570;18.610;2023-12-20T03:59:41;229.32;;;75.88;;
78183;SDS011;67442;44.570;18.610;2023-12-20T04:02:09;172.52;;;58.03;;
78183;SDS011;67442;44.570;18.610;2023-12-20T04:04:36;204.60;;;64.80;;
78183;SDS011;67442;44.570;18.610;2023-12-20T04:07:04;199.50;;;66.38;;
78183;SDS011;67442;44.570;18.610;2023-12-20T04:09:32;196.35;;;67.63;;
78183;SDS011;67442;44.570;18.610;2023-12-20T04:11:59;231.60;;;72.18;;
78183;SDS011;67442;44.570;18.610;2023-12-20T04:14:30;209.82;;;65.20;;
78183;SDS011;67442;44.570;18.610;2023-12-20T04:16:58;233.68;;;74.03;;
78183;SDS011;67442;44.570;18.610;2023-12-20T04:19:29;214.55;;;74.25;;
78183;SDS011;67442;44.570;18.610;2023-12-20T04:21:57;212.75;;;68.50;;
78183;SDS011;67442;44.570;18.610;2023-12-20T04:24:24;214.05;;;72.30;;
78183;SDS011;67442;44.570;18.610;2023-12-20T04:26:52;250.57;;;81.35;;
78183;SDS011;67442;44.570;18.610;2023-12-20T04:29:20;196.10;;;68.05;;
78183;SDS011;67442;44.570;18.610;2023-12-20T04:31:47;148.40;;;50.17;;
78183;SDS011;67442;44.570;18.610;2023-12-20T04:34:17;183.90;;;59.28;;
78183;SDS011;67442;44.570;18.610;2023-12-20T04:36:44;156.77;;;55.95;;
78183;SDS011;67442;44.570;18.610;2023-12-20T04:39:12;162.85;;;56.08;;
78183;SDS011;67442;44.570;18.610;2023-12-20T04:41:40;147.80;;;51.45;;
78183;SDS011;67442;44.570;18.610;2023-12-20T04:44:07;147.05;;;51.67;;
78183;SDS011;67442;44.570;18.610;2023-12-20T04:46:35;177.07;;;61.42;;
78183;SDS011;67442;44.570;18.610;2023-12-20T04:49:02;161.80;;;54.65;;
78183;SDS011;67442;44.570;18.610;2023-12-20T04:51:32;160.68;;;52.00;;
78183;SDS011;67442;44.570;18.610;2023-12-20T04:54:00;171.95;;;59.15;;
78183;SDS011;67442;44.570;18.610;2023-12-20T04:56:30;170.65;;;56.38;;
78183;SDS011;67442;44.570;18.610;2023-12-20T04:58:58;175.32;;;54.70;;
78183;SDS011;67442;44.570;18.610;2023-12-20T05:01:26;161.75;;;53.05;;
78183;SDS011;67442;44.570;18.610;2023-12-20T05:03:52;152.45;;;52.38;;
78183;SDS011;67442;44.570;18.610;2023-12-20T05:06:21;166.93;;;56.75;;
78183;SDS011;67442;44.570;18.610;2023-12-20T05:08:49;158.75;;;49.22;;
78183;SDS011;67442;44.570;18.610;2023-12-20T05:11:20;158.27;;;50.88;;
78183;SDS011;67442;44.570;18.610;2023-12-20T05:13:51;150.20;;;50.60;;
78183;SDS011;67442;44.570;18.610;2023-12-20T05:16:19;184.55;;;57.40;;
78183;SDS011;67442;44.570;18.610;2023-12-20T05:18:50;187.00;;;63.33;;
78183;SDS011;67442;44.570;18.610;2023-12-20T05:21:18;180.90;;;61.75;;
78183;SDS011;67442;44.570;18.610;2023-12-20T05:23:49;200.38;;;65.10;;
78183;SDS011;67442;44.570;18.610;2023-12-20T05:26:17;204.25;;;70.38;;
78183;SDS011;67442;44.570;18.610;2023-12-20T05:28:48;212.52;;;69.78;;
78183;SDS011;67442;44.570;18.610;2023-12-20T05:31:16;182.80;;;61.55;;
78183;SDS011;67442;44.570;18.610;2023-12-20T05:33:47;183.25;;;58.47;;
78183;SDS011;67442;44.570;18.610;2023-12-20T05:36:15;140.75;;;47.85;;
78183;SDS011;67442;44.570;18.610;2023-12-20T05:38:44;123.70;;;41.20;;
78183;SDS011;67442;44.570;18.610;2023-12-20T05:41:11;178.65;;;57.92;;
78183;SDS011;67442;44.570;18.610;2023-12-20T05:43:39;258.95;;;82.80;;
78183;SDS011;67442;44.570;18.610;2023-12-20T05:46:07;227.85;;;70.43;;
78183;SDS011;67442;44.570;18.610;2023-12-20T05:48:40;164.15;;;55.67;;
78183;SDS011;67442;44.570;18.610;2023-12-20T05:51:07;137.95;;;46.10;;
78183;SDS011;67442;44.570;18.610;2023-12-20T05:53:38;132.55;;;43.83;;
78183;SDS011;67442;44.570;18.610;2023-12-20T05:56:05;111.75;;;42.60;;
78183;SDS011;67442;44.570;18.610;2023-12-20T05:58:33;142.68;;;45.47;;
78183;SDS011;67442;44.570;18.610;2023-12-20T06:01:03;124.80;;;44.72;;
78183;SDS011;67442;44.570;18.610;2023-12-20T06:03:31;142.88;;;49.65;;
78183;SDS011;67442;44.570;18.610;2023-12-20T06:05:58;146.60;;;48.45;;
78183;SDS011;67442;44.570;18.610;2023-12-20T06:08:30;171.80;;;55.15;;
78183;SDS011;67442;44.570;18.610;2023-12-20T06:10:58;185.27;;;56.80;;
78183;SDS011;67442;44.570;18.610;2023-12-20T06:13:29;181.65;;;60.47;;
78183;SDS011;67442;44.570;18.610;2023-12-20T06:15:56;152.07;;;51.20;;
78183;SDS011;67442;44.570;18.610;2023-12-20T06:18:24;159.63;;;51.63;;
78183;SDS011;67442;44.570;18.610;2023-12-20T06:20:52;154.13;;;51.88;;
78183;SDS011;67442;44.570;18.610;2023-12-20T06:23:22;133.48;;;44.00;;
78183;SDS011;67442;44.570;18.610;2023-12-20T06:25:50;130.40;;;45.22;;
78183;SDS011;67442;44.570;18.610;2023-12-20T06:28:17;204.68;;;69.60;;
78183;SDS011;67442;44.570;18.610;2023-12-20T06:30:44;311.45;;;86.10;;
78183;SDS011;67442;44.570;18.610;2023-12-20T06:33:15;370.45;;;101.22;;
78183;SDS011;67442;44.570;18.610;2023-12-20T06:35:42;296.88;;;85.90;;
78183;SDS011;67442;44.570;18.610;2023-12-20T06:38:13;266.88;;;83.53;;
78183;SDS011;67442;44.570;18.610;2023-12-20T06:40:44;272.45;;;87.30;;
78183;SDS011;67442;44.570;18.610;2023-12-20T06:43:12;256.08;;;91.45;;
78183;SDS011;67442;44.570;18.610;2023-12-20T06:45:39;244.52;;;88.38;;
78183;SDS011;67442;44.570;18.610;2023-12-20T06:48:06;267.13;;;91.50;;
78183;SDS011;67442;44.570;18.610;2023-12-20T06:50:33;237.25;;;78.80;;
78183;SDS011;67442;44.570;18.610;2023-12-20T06:53:08;335.17;;;118.20;;
78183;SDS011;67442;44.570;18.610;2023-12-20T06:55:38;261.80;;;91.95;;
78183;SDS011;67442;44.570;18.610;2023-12-20T06:58:06;309.80;;;100.63;;
78183;SDS011;67442;44.570;18.610;2023-12-20T07:00:34;326.02;;;111.20;;
78183;SDS011;67442;44.570;18.610;2023-12-20T07:03:06;327.70;;;108.25;;
78183;SDS011;67442;44.570;18.610;2023-12-20T07:05:33;235.48;;;77.22;;
78183;SDS011;67442;44.570;18.610;2023-12-20T07:08:01;211.90;;;68.85;;
78183;SDS011;67442;44.570;18.610;2023-12-20T07:10:29;204.10;;;65.43;;
78183;SDS011;67442;44.570;18.610;2023-12-20T07:12:57;204.88;;;70.00;;
78183;SDS011;67442;44.570;18.610;2023-12-20T07:15:24;231.07;;;77.10;;
78183;SDS011;67442;44.570;18.610;2023-12-20T07:17:52;256.27;;;91.95;;
78183;SDS011;67442;44.570;18.610;2023-12-20T07:20:20;239.23;;;84.82;;
78183;SDS011;67442;44.570;18.610;2023-12-20T07:22:48;268.70;;;94.05;;
78183;SDS011;67442;44.570;18.610;2023-12-20T07:25:16;284.70;;;96.22;;
78183;SDS011;67442;44.570;18.610;2023-12-20T07:27:43;296.67;;;104.90;;
78183;SDS011;67442;44.570;18.610;2023-12-20T07:30:11;426.08;;;157.20;;
78183;SDS011;67442;44.570;18.610;2023-12-20T07:32:40;461.85;;;171.80;;
78183;SDS011;67442;44.570;18.610;2023-12-20T07:35:07;441.60;;;166.95;;
78183;SDS011;67442;44.570;18.610;2023-12-20T07:37:39;292.90;;;108.28;;
78183;SDS011;67442;44.570;18.610;2023-12-20T07:40:11;340.40;;;129.02;;
78183;SDS011;67442;44.570;18.610;2023-12-20T07:42:37;309.95;;;121.07;;
78183;SDS011;67442;44.570;18.610;2023-12-20T07:45:06;417.38;;;156.05;;
78183;SDS011;67442;44.570;18.610;2023-12-20T07:47:36;517.03;;;200.48;;
78183;SDS011;67442;44.570;18.610;2023-12-20T07:50:03;493.08;;;197.82;;
78183;SDS011;67442;44.570;18.610;2023-12-20T07:52:32;477.88;;;193.45;;
78183;SDS011;67442;44.570;18.610;2023-12-20T07:54:59;460.65;;;182.88;;
78183;SDS011;67442;44.570;18.610;2023-12-20T07:57:30;483.80;;;198.30;;
78183;SDS011;67442;44.570;18.610;2023-12-20T07:59:57;450.17;;;180.68;;
78183;SDS011;67442;44.570;18.610;2023-12-20T08:02:25;465.73;;;194.27;;
78183;SDS011;67442;44.570;18.610;2023-12-20T08:04:52;431.48;;;174.77;;
78183;SDS011;67442;44.570;18.610;2023-12-20T08:07:20;412.02;;;171.55;;
78183;SDS011;67442;44.570;18.610;2023-12-20T08:09:47;443.77;;;189.15;;
78183;SDS011;67442;44.570;18.610;2023-12-20T08:12:15;411.33;;;178.80;;
78183;SDS011;67442;44.570;18.610;2023-12-20T08:14:43;409.55;;;178.55;;
78183;SDS011;67442;44.570;18.610;2023-12-20T08:17:10;428.63;;;187.23;;
78183;SDS011;67442;44.570;18.610;2023-12-20T08:19:44;419.48;;;183.60;;
78183;SDS011;67442;44.570;18.610;2023-12-20T08:22:11;429.65;;;185.55;;
78183;SDS011;67442;44.570;18.610;2023-12-20T08:24:39;418.02;;;178.48;;
78183;SDS011;67442;44.570;18.610;2023-12-20T08:27:06;433.40;;;184.05;;
78183;SDS011;67442;44.570;18.610;2023-12-20T08:29:35;423.50;;;182.90;;
78183;SDS011;67442;44.570;18.610;2023-12-20T08:32:05;659.30;;;248.25;;
78183;SDS011;67442;44.570;18.610;2023-12-20T08:34:37;436.58;;;173.48;;
78183;SDS011;67442;44.570;18.610;2023-12-20T08:37:08;409.48;;;177.05;;
78183;SDS011;67442;44.570;18.610;2023-12-20T08:39:35;347.98;;;151.30;;
78183;SDS011;67442;44.570;18.610;2023-12-20T08:42:07;261.27;;;116.72;;
78183;SDS011;67442;44.570;18.610;2023-12-20T08:44:38;206.13;;;89.18;;
78183;SDS011;67442;44.570;18.610;2023-12-20T08:47:09;194.75;;;87.32;;
78183;SDS011;67442;44.570;18.610;2023-12-20T08:49:39;207.93;;;90.90;;
78183;SDS011;67442;44.570;18.610;2023-12-20T08:52:11;222.43;;;97.78;;
78183;SDS011;67442;44.570;18.610;2023-12-20T08:54:39;332.25;;;140.05;;
78183;SDS011;67442;44.570;18.610;2023-12-20T08:57:06;550.60;;;234.75;;
78183;SDS011;67442;44.570;18.610;2023-12-20T08:59:34;312.85;;;132.60;;
78183;SDS011;67442;44.570;18.610;2023-12-20T09:02:02;263.25;;;114.97;;
78183;SDS011;67442;44.570;18.610;2023-12-20T09:04:29;257.48;;;114.60;;
78183;SDS011;67442;44.570;18.610;2023-12-20T09:06:59;231.45;;;97.88;;
78183;SDS011;67442;44.570;18.610;2023-12-20T09:09:27;203.10;;;87.15;;
78183;SDS011;67442;44.570;18.610;2023-12-20T09:11:54;170.35;;;77.05;;
78183;SDS011;67442;44.570;18.610;2023-12-20T09:14:22;147.23;;;69.32;;
78183;SDS011;67442;44.570;18.610;2023-12-20T09:16:51;145.23;;;67.65;;
78183;SDS011;67442;44.570;18.610;2023-12-20T09:19:21;141.43;;;58.67;;
78183;SDS011;67442;44.570;18.610;2023-12-20T09:21:49;102.85;;;49.40;;
78183;SDS011;67442;44.570;18.610;2023-12-20T09:24:20;93.05;;;42.42;;
78183;SDS011;67442;44.570;18.610;2023-12-20T09:26:47;88.97;;;41.25;;
78183;SDS011;67442;44.570;18.610;2023-12-20T09:29:18;87.88;;;37.08;;
78183;SDS011;67442;44.570;18.610;2023-12-20T09:31:49;96.35;;;42.63;;
78183;SDS011;67442;44.570;18.610;2023-12-20T09:34:17;93.63;;;44.55;;
78183;SDS011;67442;44.570;18.610;2023-12-20T09:36:49;101.32;;;46.15;;
78183;SDS011;67442;44.570;18.610;2023-12-20T09:39:17;85.53;;;38.25;;
78183;SDS011;67442;44.570;18.610;2023-12-20T09:41:59;96.20;;;42.72;;
78183;SDS011;67442;44.570;18.610;2023-12-20T09:44:27;106.95;;;47.00;;
78183;SDS011;67442;44.570;18.610;2023-12-20T09:46:56;118.07;;;52.20;;
78183;SDS011;67442;44.570;18.610;2023-12-20T09:49:23;127.40;;;53.53;;
78183;SDS011;67442;44.570;18.610;2023-12-20T09:51:54;126.70;;;55.47;;
78183;SDS011;67442;44.570;18.610;2023-12-20T09:54:22;133.38;;;62.08;;
78183;SDS011;67442;44.570;18.610;2023-12-20T09:56:53;144.20;;;62.88;;
78183;SDS011;67442;44.570;18.610;2023-12-20T09:59:21;132.55;;;59.92;;
78183;SDS011;67442;44.570;18.610;2023-12-20T10:01:48;134.73;;;60.42;;
78183;SDS011;67442;44.570;18.610;2023-12-20T10:04:20;102.15;;;45.35;;
78183;SDS011;67442;44.570;18.610;2023-12-20T10:06:47;115.55;;;50.88;;
78183;SDS011;67442;44.570;18.610;2023-12-20T10:09:15;112.97;;;50.58;;
78183;SDS011;67442;44.570;18.610;2023-12-20T10:11:42;106.65;;;47.15;;
78183;SDS011;67442;44.570;18.610;2023-12-20T10:14:10;120.55;;;52.70;;
78183;SDS011;67442;44.570;18.610;2023-12-20T10:16:42;143.48;;;61.65;;
78183;SDS011;67442;44.570;18.610;2023-12-20T10:19:15;151.68;;;69.22;;
78183;SDS011;67442;44.570;18.610;2023-12-20T10:21:43;180.40;;;75.50;;
78183;SDS011;67442;44.570;18.610;2023-12-20T10:24:15;147.18;;;69.30;;
78183;SDS011;67442;44.570;18.610;2023-12-20T10:26:47;164.30;;;68.40;;
78183;SDS011;67442;44.570;18.610;2023-12-20T10:29:32;138.82;;;60.22;;
78183;SDS011;67442;44.570;18.610;2023-12-20T10:32:21;129.52;;;58.13;;
78183;SDS011;67442;44.570;18.610;2023-12-20T10:34:49;117.78;;;52.25;;
78183;SDS011;67442;44.570;18.610;2023-12-20T10:37:16;116.68;;;52.17;;
78183;SDS011;67442;44.570;18.610;2023-12-20T10:39:49;125.78;;;55.42;;
78183;SDS011;67442;44.570;18.610;2023-12-20T10:42:21;134.73;;;57.88;;
78183;SDS011;67442;44.570;18.610;2023-12-20T10:44:56;131.73;;;62.27;;
78183;SDS011;67442;44.570;18.610;2023-12-20T10:47:24;154.45;;;71.88;;
78183;SDS011;67442;44.570;18.610;2023-12-20T10:49:55;167.70;;;73.70;;
78183;SDS011;67442;44.570;18.610;2023-12-20T10:52:27;184.07;;;78.38;;
78183;SDS011;67442;44.570;18.610;2023-12-20T10:54:55;191.38;;;79.18;;
78183;SDS011;67442;44.570;18.610;2023-12-20T10:57:26;186.23;;;77.28;;
78183;SDS011;67442;44.570;18.610;2023-12-20T10:59:54;171.00;;;74.80;;
78183;SDS011;67442;44.570;18.610;2023-12-20T11:02:22;172.70;;;75.80;;
78183;SDS011;67442;44.570;18.610;2023-12-20T11:05:03;168.27;;;73.85;;
78183;SDS011;67442;44.570;18.610;2023-12-20T11:07:55;155.20;;;72.20;;
78183;SDS011;67442;44.570;18.610;2023-12-20T11:10:48;146.98;;;68.60;;
78183;SDS011;67442;44.570;18.610;2023-12-20T11:13:32;148.88;;;65.45;;
78183;SDS011;67442;44.570;18.610;2023-12-20T11:16:13;152.50;;;66.55;;
78183;SDS011;67442;44.570;18.610;2023-12-20T11:18:45;146.50;;;66.93;;
78183;SDS011;67442;44.570;18.610;2023-12-20T11:21:12;145.02;;;63.50;;
78183;SDS011;67442;44.570;18.610;2023-12-20T11:23:40;144.93;;;64.30;;
78183;SDS011;67442;44.570;18.610;2023-12-20T11:26:10;149.70;;;62.22;;
78183;SDS011;67442;44.570;18.610;2023-12-20T11:28:37;143.75;;;63.33;;
78183;SDS011;67442;44.570;18.610;2023-12-20T11:31:05;141.73;;;64.07;;
78183;SDS011;67442;44.570;18.610;2023-12-20T11:33:36;146.27;;;64.43;;
78183;SDS011;67442;44.570;18.610;2023-12-20T11:36:13;145.60;;;63.85;;
78183;SDS011;67442;44.570;18.610;2023-12-20T11:38:56;128.47;;;57.87;;
78183;SDS011;67442;44.570;18.610;2023-12-20T11:41:27;132.10;;;59.70;;
78183;SDS011;67442;44.570;18.610;2023-12-20T11:43:59;116.72;;;54.83;;
78183;SDS011;67442;44.570;18.610;2023-12-20T11:46:28;113.10;;;55.38;;
78183;SDS011;67442;44.570;18.610;2023-12-20T11:48:56;120.93;;;54.88;;
78183;SDS011;67442;44.570;18.610;2023-12-20T11:51:24;112.10;;;54.05;;
78183;SDS011;67442;44.570;18.610;2023-12-20T11:53:55;129.95;;;57.33;;
78183;SDS011;67442;44.570;18.610;2023-12-20T11:56:22;136.45;;;61.47;;
78183;SDS011;67442;44.570;18.610;2023-12-20T11:58:49;140.25;;;66.15;;
78183;SDS011;67442;44.570;18.610;2023-12-20T12:01:20;136.57;;;58.63;;
78183;SDS011;67442;44.570;18.610;2023-12-20T12:04:04;131.40;;;58.00;;
78183;SDS011;67442;44.570;18.610;2023-12-20T12:06:36;124.28;;;57.70;;
78183;SDS011;67442;44.570;18.610;2023-12-20T12:09:04;119.88;;;59.70;;
78183;SDS011;67442;44.570;18.610;2023-12-20T12:11:31;128.32;;;61.80;;
78183;SDS011;67442;44.570;18.610;2023-12-20T12:14:03;156.48;;;60.58;;
78183;SDS011;67442;44.570;18.610;2023-12-20T12:16:32;126.45;;;56.78;;
78183;SDS011;67442;44.570;18.610;2023-12-20T12:18:59;150.70;;;68.10;;
78183;SDS011;67442;44.570;18.610;2023-12-20T12:21:27;158.52;;;75.47;;
78183;SDS011;67442;44.570;18.610;2023-12-20T12:24:03;187.05;;;87.30;;
78183;SDS011;67442;44.570;18.610;2023-12-20T12:26:35;173.07;;;80.80;;
78183;SDS011;67442;44.570;18.610;2023-12-20T12:29:02;200.18;;;89.65;;
78183;SDS011;67442;44.570;18.610;2023-12-20T12:31:37;91.90;;;41.20;;
78183;SDS011;67442;44.570;18.610;2023-12-20T12:34:05;73.50;;;31.80;;
78183;SDS011;67442;44.570;18.610;2023-12-20T12:36:34;68.45;;;33.45;;
78183;SDS011;67442;44.570;18.610;2023-12-20T12:39:02;84.43;;;38.25;;
78183;SDS011;67442;44.570;18.610;2023-12-20T12:41:30;81.15;;;37.72;;
78183;SDS011;67442;44.570;18.610;2023-12-20T12:43:57;80.72;;;36.85;;
78183;SDS011;67442;44.570;18.610;2023-12-20T12:46:25;87.00;;;42.05;;
78183;SDS011;67442;44.570;18.610;2023-12-20T12:48:55;75.68;;;35.30;;
78183;SDS011;67442;44.570;18.610;2023-12-20T12:51:29;77.43;;;35.22;;
78183;SDS011;67442;44.570;18.610;2023-12-20T12:53:57;81.30;;;36.60;;
78183;SDS011;67442;44.570;18.610;2023-12-20T12:56:29;88.95;;;37.95;;
78183;SDS011;67442;44.570;18.610;2023-12-20T12:58:56;80.07;;;37.22;;
78183;SDS011;67442;44.570;18.610;2023-12-20T13:01:23;101.72;;;47.22;;
78183;SDS011;67442;44.570;18.610;2023-12-20T13:03:51;103.53;;;47.08;;
78183;SDS011;67442;44.570;18.610;2023-12-20T13:06:20;173.50;;;78.35;;
78183;SDS011;67442;44.570;18.610;2023-12-20T13:08:47;214.77;;;98.53;;
78183;SDS011;67442;44.570;18.610;2023-12-20T13:11:14;115.68;;;55.72;;
78183;SDS011;67442;44.570;18.610;2023-12-20T13:13:45;101.75;;;50.08;;
78183;SDS011;67442;44.570;18.610;2023-12-20T13:16:16;70.10;;;33.90;;
78183;SDS011;67442;44.570;18.610;2023-12-20T13:18:44;82.45;;;39.58;;
78183;SDS011;67442;44.570;18.610;2023-12-20T13:21:21;82.72;;;41.42;;
78183;SDS011;67442;44.570;18.610;2023-12-20T13:23:48;100.90;;;45.95;;
78183;SDS011;67442;44.570;18.610;2023-12-20T13:26:34;68.20;;;30.92;;
78183;SDS011;67442;44.570;18.610;2023-12-20T13:29:08;82.75;;;33.67;;
78183;SDS011;67442;44.570;18.610;2023-12-20T13:31:42;77.53;;;33.45;;
78183;SDS011;67442;44.570;18.610;2023-12-20T13:34:10;62.50;;;28.48;;
78183;SDS011;67442;44.570;18.610;2023-12-20T13:36:39;63.65;;;32.95;;
78183;SDS011;67442;44.570;18.610;2023-12-20T13:39:07;66.63;;;35.45;;
78183;SDS011;67442;44.570;18.610;2023-12-20T13:41:36;67.30;;;35.53;;
78183;SDS011;67442;44.570;18.610;2023-12-20T13:44:05;47.67;;;24.77;;
78183;SDS011;67442;44.570;18.610;2023-12-20T13:46:32;57.10;;;26.73;;
78183;SDS011;67442;44.570;18.610;2023-12-20T13:49:00;57.33;;;26.08;;
78183;SDS011;67442;44.570;18.610;2023-12-20T13:51:31;44.38;;;20.90;;
78183;SDS011;67442;44.570;18.610;2023-12-20T13:53:59;43.78;;;18.48;;
78183;SDS011;67442;44.570;18.610;2023-12-20T13:56:29;56.67;;;25.15;;
78183;SDS011;67442;44.570;18.610;2023-12-20T13:58:58;43.58;;;19.55;;
78183;SDS011;67442;44.570;18.610;2023-12-20T14:01:26;56.05;;;21.73;;
78183;SDS011;67442;44.570;18.610;2023-12-20T14:03:53;46.88;;;16.83;;
78183;SDS011;67442;44.570;18.610;2023-12-20T14:06:21;43.70;;;19.80;;
78183;SDS011;67442;44.570;18.610;2023-12-20T14:08:49;54.05;;;24.75;;